Time;durP1;ratioP1;P1;durP2;ratioP2;P2;SDS_P1;SDS_P2;PMS_P1;PMS_P2;Temp;Humidity;BMP_temperature;BMP_pressure;BME280_temperature;BME280_humidity;BME280_pressure;Samples;Min_cycle;Max_cycle;Signal;HPM_P1;HPM_P2
2023/12/02 00:00:55;;;;;;;4.57;2.00;;;;;;;17.79;52.65;93918.63;4989537;28;20924;-43
2023/12/02 00:03:23;;;;;;;4.10;1.73;;;;;;;17.74;52.85;93885.56;4989209;28;20623;-42
2023/12/02 00:05:50;;;;;;;2.80;1.60;;;;;;;17.85;51.66;93898.91;4989091;28;20189;-43
2023/12/02 00:08:18;;;;;;;4.23;1.63;;;;;;;17.74;51.68;93900.31;4989482;28;20323;-44
2023/12/02 00:10:46;;;;;;;3.20;1.90;;;;;;;17.77;51.64;93882.59;4989246;28;20232;-43
2023/12/02 00:13:13;;;;;;;7.37;1.70;;;;;;;17.90;50.49;93930.13;4991544;28;20233;-43
2023/12/02 00:15:40;;;;;;;3.23;1.80;;;;;;;17.96;50.36;93900.84;4990905;28;20177;-43
2023/12/02 00:18:06;;;;;;;3.87;1.90;;;;;;;17.96;50.23;93911.19;4991755;28;20563;-43
2023/12/02 00:20:34;;;;;;;4.80;1.87;;;;;;;18.04;50.59;93898.06;4991603;28;20201;-43
2023/12/02 00:23:01;;;;;;;6.17;1.90;;;;;;;18.06;49.84;93919.38;4991502;28;20204;-43
2023/12/02 00:25:28;;;;;;;2.63;1.80;;;;;;;18.04;49.83;93911.00;4991286;28;20619;-41
2023/12/02 00:27:55;;;;;;;5.43;1.80;;;;;;;18.16;49.12;93896.44;4991013;28;20750;-43
2023/12/02 00:30:22;;;;;;;6.10;1.80;;;;;;;18.28;48.56;93900.00;4991414;28;20192;-43
2023/12/02 00:32:48;;;;;;;4.20;1.53;;;;;;;18.33;48.79;93883.06;4990896;28;20221;-45
2023/12/02 00:35:15;;;;;;;2.80;1.80;;;;;;;18.37;48.45;93903.16;4991264;28;20193;-43
2023/12/02 00:37:43;;;;;;;3.70;1.80;;;;;;;18.29;48.71;93886.03;4990727;28;20205;-43
2023/12/02 00:40:11;;;;;;;5.07;2.47;;;;;;;18.22;48.61;93861.19;4991188;28;20625;-43
2023/12/02 00:42:37;;;;;;;3.27;1.77;;;;;;;18.07;48.56;93861.44;4991592;28;20185;-43
2023/12/02 00:45:06;;;;;;;3.77;1.60;;;;;;;18.17;48.12;93885.06;4991151;28;20292;-42
2023/12/02 00:47:33;;;;;;;6.60;1.73;;;;;;;18.24;48.33;93900.59;4990360;28;20200;-42
2023/12/02 00:50:00;;;;;;;1.80;1.70;;;;;;;18.29;47.76;93914.50;4990279;28;20200;-43
2023/12/02 00:52:27;;;;;;;2.60;1.83;;;;;;;18.29;47.88;93893.00;4991252;28;20351;-45
2023/12/02 00:54:55;;;;;;;3.27;1.60;;;;;;;18.20;48.45;93904.59;4990550;28;20188;-42
2023/12/02 00:57:22;;;;;;;3.33;1.70;;;;;;;18.19;48.69;93893.44;4991368;28;20214;-44
2023/12/02 00:59:48;;;;;;;1.93;1.80;;;;;;;18.25;48.70;93889.25;4990384;28;20199;-42
2023/12/02 01:02:15;;;;;;;3.63;1.97;;;;;;;18.21;49.13;93882.88;4990787;28;20228;-43
2023/12/02 01:04:42;;;;;;;3.83;2.63;;;;;;;18.13;49.48;93870.97;4990714;28;20549;-42
2023/12/02 01:07:08;;;;;;;2.10;1.73;;;;;;;18.08;49.63;93882.94;4990587;28;20721;-41
2023/12/02 01:09:35;;;;;;;8.17;2.00;;;;;;;18.06;49.23;93888.31;4990586;28;20193;-42
2023/12/02 01:12:04;;;;;;;4.73;1.97;;;;;;;18.08;47.88;93873.38;4990577;28;20611;-42
2023/12/02 01:14:30;;;;;;;4.73;2.10;;;;;;;18.03;48.86;93896.47;4990108;28;20271;-43
2023/12/02 01:16:57;;;;;;;5.00;1.90;;;;;;;18.01;50.01;93881.16;4982147;28;20247;-44
2023/12/02 01:19:24;;;;;;;9.80;2.20;;;;;;;17.85;50.74;93878.22;4990555;28;20329;-44
2023/12/02 01:21:50;;;;;;;4.87;2.17;;;;;;;17.76;51.14;93875.03;4990335;28;20200;-42
2023/12/02 01:24:17;;;;;;;5.03;2.10;;;;;;;17.67;51.66;93874.44;4990847;28;20198;-43
2023/12/02 01:26:44;;;;;;;2.90;2.40;;;;;;;17.52;52.17;93851.38;4990226;28;20186;-42
2023/12/02 01:29:12;;;;;;;4.30;2.50;;;;;;;17.41;52.38;93851.19;4990033;28;20677;-43
2023/12/02 01:31:39;;;;;;;2.40;2.20;;;;;;;17.26;53.50;93847.00;4989628;28;20213;-42
2023/12/02 01:34:06;;;;;;;6.83;2.87;;;;;;;17.07;54.01;93828.94;4990304;28;20229;-42
2023/12/02 01:36:33;;;;;;;6.50;2.60;;;;;;;16.97;54.98;93850.00;4990098;28;20200;-44
2023/12/02 01:38:59;;;;;;;5.23;2.40;;;;;;;16.64;55.73;93817.16;4989951;28;20663;-42
2023/12/02 01:41:26;;;;;;;4.13;2.40;;;;;;;16.75;55.84;93864.84;4990102;28;20656;-43
2023/12/02 01:43:53;;;;;;;8.23;2.77;;;;;;;16.62;56.41;93854.47;4989779;28;20197;-42
2023/12/02 01:46:21;;;;;;;7.77;2.43;;;;;;;16.53;56.05;93835.78;4990084;28;20303;-43
2023/12/02 01:48:49;;;;;;;2.87;2.37;;;;;;;16.47;55.84;93834.78;4989757;28;20600;-42
2023/12/02 01:51:16;;;;;;;8.83;2.67;;;;;;;16.33;56.59;93840.09;4989989;28;20267;-42
2023/12/02 01:53:44;;;;;;;3.83;1.83;;;;;;;16.23;56.68;93820.59;4989676;28;20204;-42
2023/12/02 01:56:12;;;;;;;2.70;1.60;;;;;;;16.30;51.87;93828.38;4989896;28;20189;-43
2023/12/02 01:58:40;;;;;;;3.07;1.83;;;;;;;16.44;51.20;93822.25;4988872;28;20188;-42
2023/12/02 02:01:07;;;;;;;2.83;1.80;;;;;;;16.76;49.38;93832.91;4989785;28;20566;-44
2023/12/02 02:03:35;;;;;;;2.70;1.60;;;;;;;16.90;50.31;93837.06;4990015;28;20209;-43
2023/12/02 02:06:02;;;;;;;2.63;1.67;;;;;;;16.94;50.82;93838.28;4989556;28;20636;-43
2023/12/02 02:08:29;;;;;;;2.03;1.80;;;;;;;16.95;52.20;93816.59;4989641;28;20658;-42
2023/12/02 02:10:57;;;;;;;6.87;1.93;;;;;;;16.92;53.48;93839.44;4989799;28;20649;-42
2023/12/02 02:13:23;;;;;;;5.70;2.53;;;;;;;16.82;54.83;93839.84;4989352;28;20229;-42
2023/12/02 02:15:50;;;;;;;3.57;2.00;;;;;;;16.72;56.16;93818.75;4989617;28;20656;-43
2023/12/02 02:18:17;;;;;;;5.17;2.03;;;;;;;16.59;56.86;93829.84;4989312;28;20221;-43
2023/12/02 02:20:50;;;;;;;3.03;2.23;;;;;;;16.55;57.33;93811.38;4989748;28;20620;-42
2023/12/02 02:23:19;;;;;;;7.07;2.67;;;;;;;16.31;59.60;93784.31;4989781;28;20279;-43
2023/12/02 02:25:46;;;;;;;9.57;2.37;;;;;;;16.17;60.17;93800.75;4989792;28;20201;-42
2023/12/02 02:28:12;;;;;;;4.47;2.43;;;;;;;16.13;60.72;93786.66;4989730;28;20224;-42
2023/12/02 02:30:39;;;;;;;4.97;2.13;;;;;;;16.05;60.81;93807.44;4989949;28;20193;-43
2023/12/02 02:33:06;;;;;;;7.60;2.20;;;;;;;15.88;61.19;93808.78;4989518;28;20220;-42
2023/12/02 02:35:33;;;;;;;3.23;2.27;;;;;;;15.66;62.50;93831.28;4989364;28;20189;-44
2023/12/02 02:38:00;;;;;;;5.70;2.23;;;;;;;15.48;64.39;93847.19;4989815;28;20260;-42
2023/12/02 02:40:28;;;;;;;7.50;2.70;;;;;;;15.31;65.71;93826.06;4989701;28;20284;-42
2023/12/02 02:42:56;;;;;;;5.53;4.27;;;;;;;15.12;66.64;93806.13;4989709;28;20193;-42
2023/12/02 02:45:22;;;;;;;3.67;2.57;;;;;;;14.91;67.69;93768.34;4989081;28;20740;-42
2023/12/02 02:47:49;;;;;;;6.37;2.73;;;;;;;14.82;68.56;93784.91;4988991;28;20653;-42
2023/12/02 02:50:16;;;;;;;3.57;2.43;;;;;;;14.79;67.94;93792.00;4989123;28;20583;-43
2023/12/02 02:52:43;;;;;;;5.13;2.57;;;;;;;14.83;67.46;93799.38;4989211;28;20673;-41
2023/12/02 02:55:10;;;;;;;6.30;2.63;;;;;;;14.72;68.97;93783.44;4988758;28;20669;-41
2023/12/02 02:57:38;;;;;;;8.77;2.57;;;;;;;14.67;68.97;93790.91;4989536;28;20230;-43
2023/12/02 03:00:09;;;;;;;4.60;2.87;;;;;;;14.51;69.96;93804.84;4989085;28;20680;-42
2023/12/02 03:02:36;;;;;;;2.30;2.10;;;;;;;14.52;70.47;93800.47;4989579;28;20189;-42
2023/12/02 03:05:04;;;;;;;7.93;2.60;;;;;;;14.39;71.01;93811.41;4989481;28;20645;-42
2023/12/02 03:07:31;;;;;;;12.70;3.90;;;;;;;14.26;71.01;93806.91;4989652;28;20716;-42
2023/12/02 03:09:57;;;;;;;4.10;2.20;;;;;;;14.11;71.83;93810.50;4992114;28;20224;-42
2023/12/02 03:12:24;;;;;;;6.30;2.80;;;;;;;13.94;71.12;93789.34;4992925;28;20299;-42
2023/12/02 03:14:53;;;;;;;5.53;2.70;;;;;;;14.15;70.78;93791.16;4992753;28;20216;-42
2023/12/02 03:17:20;;;;;;;2.47;2.17;;;;;;;14.13;70.98;93785.41;4992827;28;20572;-43
2023/12/02 03:19:47;;;;;;;7.27;2.93;;;;;;;14.19;71.14;93802.69;4993102;28;20194;-42
2023/12/02 03:22:14;;;;;;;7.77;2.37;;;;;;;14.11;71.15;93807.91;4992605;28;20576;-42
2023/12/02 03:24:41;;;;;;;8.83;2.90;;;;;;;14.06;70.76;93808.47;4993056;28;20247;-44
2023/12/02 03:27:07;;;;;;;6.10;2.57;;;;;;;14.04;71.16;93793.22;4992170;28;20581;-42
2023/12/02 03:29:34;;;;;;;5.83;2.40;;;;;;;13.91;71.52;93800.78;4992453;28;20641;-42
2023/12/02 03:32:03;;;;;;;3.67;2.23;;;;;;;13.94;71.50;93794.47;4992170;28;20221;-42
2023/12/02 03:34:29;;;;;;;5.40;2.67;;;;;;;13.93;71.59;93788.53;4992518;28;20589;-42
2023/12/02 03:36:56;;;;;;;4.00;2.20;;;;;;;13.84;71.97;93802.47;4992180;28;20197;-42
2023/12/02 03:39:23;;;;;;;4.40;2.90;;;;;;;13.86;72.01;93787.69;4992420;28;20186;-42
2023/12/02 03:41:50;;;;;;;7.40;2.70;;;;;;;13.80;72.24;93802.03;4992065;28;20645;-42
2023/12/02 03:44:17;;;;;;;5.87;2.37;;;;;;;13.69;72.24;93788.88;4992558;28;20251;-42
2023/12/02 03:46:44;;;;;;;6.30;2.60;;;;;;;13.85;72.03;93816.13;4992326;28;20296;-42
2023/12/02 03:49:12;;;;;;;6.20;2.90;;;;;;;13.84;71.74;93819.66;4992026;28;20276;-41
2023/12/02 03:51:39;;;;;;;5.40;2.63;;;;;;;13.81;71.64;93823.38;4992349;28;20231;-42
2023/12/02 03:54:06;;;;;;;4.57;2.33;;;;;;;13.75;71.82;93821.53;4991585;28;20794;-42
2023/12/02 03:56:33;;;;;;;5.77;2.57;;;;;;;13.77;72.12;93814.44;4992220;28;20203;-41
2023/12/02 03:58:59;;;;;;;5.33;2.40;;;;;;;13.81;71.85;93813.91;4991816;28;20193;-42
2023/12/02 04:01:26;;;;;;;5.33;2.60;;;;;;;13.79;72.41;93821.00;4991469;28;20193;-42
2023/12/02 04:03:53;;;;;;;10.90;2.80;;;;;;;13.82;72.14;93809.59;4991747;28;20659;-42
2023/12/02 04:06:21;;;;;;;3.83;2.50;;;;;;;13.85;72.10;93827.19;4991839;28;20255;-43
2023/12/02 04:08:48;;;;;;;14.63;2.87;;;;;;;13.87;72.06;93796.19;4991194;28;20699;-43
2023/12/02 04:11:14;;;;;;;4.13;2.23;;;;;;;13.86;72.41;93792.00;4991753;28;20197;-43
2023/12/02 04:13:41;;;;;;;8.00;2.23;;;;;;;13.79;72.80;93769.63;4991210;28;20227;-42
2023/12/02 04:16:08;;;;;;;6.80;2.17;;;;;;;13.81;72.63;93783.06;4991724;28;20660;-42
2023/12/02 04:18:35;;;;;;;5.60;2.40;;;;;;;13.82;72.71;93783.88;4991735;28;20185;-42
2023/12/02 04:21:02;;;;;;;5.67;2.83;;;;;;;13.87;72.47;93771.28;4990668;28;20181;-42
2023/12/02 04:23:30;;;;;;;9.43;2.83;;;;;;;13.95;72.34;93747.25;4991291;28;20576;-41
2023/12/02 04:25:57;;;;;;;3.63;2.57;;;;;;;13.83;72.64;93754.63;4991398;28;20205;-42
2023/12/02 04:28:23;;;;;;;3.37;2.23;;;;;;;13.81;72.39;93749.66;4991754;28;20641;-43
2023/12/02 04:30:50;;;;;;;7.20;3.03;;;;;;;13.84;72.14;93753.66;4991479;28;20193;-42
2023/12/02 04:33:17;;;;;;;2.33;2.03;;;;;;;13.97;72.28;93746.09;4991413;28;20217;-43
2023/12/02 04:35:45;;;;;;;7.80;2.90;;;;;;;13.94;72.12;93756.72;4991390;28;20280;-42
2023/12/02 04:38:12;;;;;;;5.80;2.20;;;;;;;13.89;72.31;93730.78;4991077;28;20263;-41
2023/12/02 04:40:40;;;;;;;5.73;2.33;;;;;;;13.66;72.14;93722.41;4990689;28;20631;-42
2023/12/02 04:43:07;;;;;;;4.13;2.57;;;;;;;13.86;71.88;93728.59;4991713;28;20259;-42
2023/12/02 04:45:34;;;;;;;7.03;3.10;;;;;;;13.72;71.90;93708.84;4991096;28;20197;-42
2023/12/02 04:48:00;;;;;;;5.23;2.73;;;;;;;13.81;71.69;93708.53;4991470;28;20200;-42
2023/12/02 04:50:27;;;;;;;3.20;2.50;;;;;;;13.88;71.63;93716.34;4991440;28;20185;-41
2023/12/02 04:52:54;;;;;;;6.23;2.97;;;;;;;13.84;71.60;93733.09;4990900;28;20759;-43
2023/12/02 04:55:21;;;;;;;3.93;2.77;;;;;;;13.83;71.24;93705.81;4991211;28;20284;-43
2023/12/02 04:57:49;;;;;;;3.93;2.43;;;;;;;13.88;71.50;93705.25;4990779;28;20189;-42
2023/12/02 05:00:17;;;;;;;4.53;2.63;;;;;;;13.92;71.44;93729.63;4990743;28;20823;-42
2023/12/02 05:02:45;;;;;;;6.83;2.67;;;;;;;13.93;71.68;93746.63;4990681;28;20565;-42
2023/12/02 05:05:12;;;;;;;4.67;2.93;;;;;;;13.96;71.45;93733.41;4990867;28;20199;-42
2023/12/02 05:07:39;;;;;;;3.73;2.50;;;;;;;13.94;71.64;93718.16;4989827;28;20714;-42
2023/12/02 05:10:06;;;;;;;8.00;3.03;;;;;;;13.90;71.87;93746.97;4990824;28;20185;-42
2023/12/02 05:12:33;;;;;;;5.93;2.73;;;;;;;13.84;72.05;93756.22;4990136;28;20201;-42
2023/12/02 05:15:01;;;;;;;4.87;2.17;;;;;;;13.87;71.78;93749.94;4990534;28;20197;-43
2023/12/02 05:17:28;;;;;;;9.50;2.30;;;;;;;13.83;71.78;93716.09;4990195;28;20190;-42
2023/12/02 05:19:55;;;;;;;6.03;2.63;;;;;;;13.79;71.28;93691.72;4990707;28;20304;-43
2023/12/02 05:22:22;;;;;;;4.47;2.47;;;;;;;13.83;71.22;93707.59;4990205;28;20200;-42
2023/12/02 05:24:49;;;;;;;3.93;2.20;;;;;;;13.79;71.57;93733.63;4990441;28;20606;-42
2023/12/02 05:27:15;;;;;;;7.90;2.60;;;;;;;13.76;70.70;93695.44;4990463;28;20544;-42
2023/12/02 05:29:43;;;;;;;7.90;3.00;;;;;;;13.78;69.93;93701.22;4990444;28;20186;-44
2023/12/02 05:32:11;;;;;;;4.33;2.10;;;;;;;13.81;69.48;93725.72;4989648;28;20200;-42
2023/12/02 05:34:38;;;;;;;5.77;2.80;;;;;;;13.90;69.05;93732.34;4990170;28;20215;-41
2023/12/02 05:37:05;;;;;;;4.17;2.30;;;;;;;13.90;70.13;93719.50;4990312;28;20565;-43
2023/12/02 05:39:31;;;;;;;3.87;2.20;;;;;;;13.92;70.49;93730.41;4989772;28;20204;-41
2023/12/02 05:41:59;;;;;;;5.60;2.57;;;;;;;13.93;70.78;93736.34;4990060;28;20634;-42
2023/12/02 05:44:26;;;;;;;5.50;2.50;;;;;;;13.39;70.37;93657.91;4990059;28;20197;-41
2023/12/02 05:46:52;;;;;;;11.00;3.00;;;;;;;13.96;70.52;93725.72;4989858;28;20664;-42
2023/12/02 05:49:21;;;;;;;4.20;2.30;;;;;;;13.98;70.19;93703.97;4989746;28;20223;-42
2023/12/02 05:51:47;;;;;;;5.47;2.43;;;;;;;14.02;70.15;93706.97;4989769;28;20669;-42
2023/12/02 05:54:14;;;;;;;3.20;2.60;;;;;;;14.01;69.60;93697.69;4989659;28;20213;-43
2023/12/02 05:56:41;;;;;;;4.63;2.53;;;;;;;14.03;68.88;93682.84;4989856;28;20189;-42
2023/12/02 05:59:08;;;;;;;5.20;2.40;;;;;;;14.13;69.11;93685.94;4989076;28;20255;-43
2023/12/02 06:01:36;;;;;;;5.70;2.30;;;;;;;14.12;69.09;93674.06;4989325;28;20244;-42
2023/12/02 06:04:03;;;;;;;5.37;2.60;;;;;;;14.03;68.76;93695.72;4989798;28;20181;-42
2023/12/02 06:06:31;;;;;;;9.10;2.70;;;;;;;14.03;68.49;93724.81;4989960;28;20193;-42
2023/12/02 06:08:58;;;;;;;3.20;2.20;;;;;;;14.09;68.51;93707.06;4981284;28;20229;-43
2023/12/02 06:11:25;;;;;;;7.53;2.33;;;;;;;14.09;68.80;93725.06;4989082;28;20196;-41
2023/12/02 06:13:51;;;;;;;5.00;2.63;;;;;;;14.19;68.98;93741.75;4989518;28;20224;-43
2023/12/02 06:16:18;;;;;;;3.30;2.30;;;;;;;14.17;69.12;93746.31;4989426;28;20192;-43
2023/12/02 06:18:45;;;;;;;7.27;2.60;;;;;;;14.15;69.65;93735.38;4989656;28;20267;-43
2023/12/02 06:21:12;;;;;;;4.37;2.70;;;;;;;13.91;70.39;93723.69;4989552;28;20199;-43
2023/12/02 06:23:40;;;;;;;5.20;2.50;;;;;;;14.08;70.61;93728.59;4989644;28;20669;-43
2023/12/02 06:26:08;;;;;;;7.67;2.90;;;;;;;14.04;71.15;93744.38;4989236;28;20661;-43
2023/12/02 06:28:34;;;;;;;9.53;3.23;;;;;;;14.04;71.30;93735.88;4989295;28;20197;-42
2023/12/02 06:31:01;;;;;;;6.43;2.87;;;;;;;14.07;71.19;93750.94;4989186;28;20192;-42
2023/12/02 06:33:28;;;;;;;6.13;3.70;;;;;;;14.11;71.02;93779.66;4989534;28;20228;-43
2023/12/02 06:35:55;;;;;;;6.67;2.87;;;;;;;14.15;71.11;93747.44;4989621;28;20616;-42
2023/12/02 06:38:22;;;;;;;5.53;2.80;;;;;;;14.12;71.16;93776.09;4971043;28;20252;-42
2023/12/02 06:40:50;;;;;;;5.17;2.47;;;;;;;14.19;71.15;93734.03;4977158;28;20193;-44
2023/12/02 06:43:16;;;;;;;7.30;2.73;;;;;;;14.17;71.22;93786.66;4986796;28;20200;-43
2023/12/02 06:45:43;;;;;;;9.97;2.90;;;;;;;14.13;71.25;93746.84;4991134;28;20201;-43
2023/12/02 06:48:10;;;;;;;7.63;2.80;;;;;;;14.14;71.27;93766.44;4990799;28;20181;-43
2023/12/02 06:50:37;;;;;;;5.70;2.53;;;;;;;14.14;71.60;93798.06;4991241;28;20189;-42
2023/12/02 06:53:03;;;;;;;8.53;3.23;;;;;;;14.23;71.69;93735.28;4990490;28;20304;-42
2023/12/02 06:55:31;;;;;;;6.77;2.90;;;;;;;14.11;71.67;93777.06;4990788;28;20189;-42
2023/12/02 06:57:59;;;;;;;9.30;3.33;;;;;;;14.03;71.70;93741.97;4990773;28;20185;-45
2023/12/02 07:00:26;;;;;;;5.33;2.83;;;;;;;14.10;71.87;93776.28;4990694;28;20596;-43
2023/12/02 07:02:53;;;;;;;5.77;2.70;;;;;;;14.13;71.74;93781.06;4990636;28;20233;-43
2023/12/02 07:05:20;;;;;;;4.70;2.60;;;;;;;14.11;71.99;93744.44;4991062;28;20197;-42
2023/12/02 07:07:46;;;;;;;8.77;2.97;;;;;;;14.10;71.31;93776.28;4990401;28;20244;-43
2023/12/02 07:10:14;;;;;;;8.73;3.17;;;;;;;14.13;71.66;93742.50;4990810;28;20193;-43
2023/12/02 07:12:40;;;;;;;6.90;2.87;;;;;;;14.05;71.83;93770.88;4990871;28;20231;-42
2023/12/02 07:15:09;;;;;;;8.20;3.03;;;;;;;14.01;71.78;93764.50;4991444;28;20221;-44
2023/12/02 07:17:36;;;;;;;6.93;3.13;;;;;;;14.01;71.57;93774.78;4990691;28;20201;-44
2023/12/02 07:20:04;;;;;;;5.77;2.90;;;;;;;14.02;70.99;93758.38;4990318;28;20588;-42
2023/12/02 07:22:31;;;;;;;4.27;2.87;;;;;;;13.98;70.65;93790.56;4991182;28;20200;-43
2023/12/02 07:24:57;;;;;;;4.83;2.33;;;;;;;13.90;70.62;93731.56;4989392;28;20193;-43
2023/12/02 07:27:24;;;;;;;8.93;3.10;;;;;;;14.04;70.72;93785.53;4990317;28;20201;-43
2023/12/02 07:29:51;;;;;;;4.77;3.10;;;;;;;14.03;70.75;93771.09;4990105;28;20189;-44
2023/12/02 07:32:19;;;;;;;6.27;3.10;;;;;;;14.06;70.54;93769.91;4989908;28;20219;-45
2023/12/02 07:34:46;;;;;;;5.40;2.90;;;;;;;13.54;70.12;93711.81;4989751;28;20219;-43
2023/12/02 07:37:12;;;;;;;5.93;2.90;;;;;;;14.18;69.38;93765.88;4989567;28;20267;-43
2023/12/02 07:39:39;;;;;;;7.53;3.23;;;;;;;14.21;69.11;93741.59;4989399;28;20208;-43
2023/12/02 07:42:06;;;;;;;6.07;2.67;;;;;;;14.25;68.44;93778.81;4989846;28;20197;-41
2023/12/02 07:44:33;;;;;;;12.13;3.70;;;;;;;14.25;68.18;93781.41;4989791;28;20259;-44
2023/12/02 07:47:00;;;;;;;5.73;2.73;;;;;;;14.21;68.13;93737.25;4989807;28;20741;-43
2023/12/02 07:49:28;;;;;;;6.63;3.00;;;;;;;14.28;68.15;93768.16;4989711;28;20190;-43
2023/12/02 07:51:55;;;;;;;8.00;2.73;;;;;;;14.26;67.91;93749.56;4989916;28;20185;-43
2023/12/02 07:54:22;;;;;;;7.43;3.67;;;;;;;14.40;67.95;93758.19;4990065;28;20213;-43
2023/12/02 07:56:49;;;;;;;6.70;3.27;;;;;;;14.47;67.52;93728.19;4988415;28;20196;-43
2023/12/02 07:59:16;;;;;;;6.97;3.10;;;;;;;14.29;67.37;93703.69;4990852;28;20213;-43
2023/12/02 08:01:43;;;;;;;7.07;3.00;;;;;;;14.46;67.00;93721.41;4989317;28;20201;-43
2023/12/02 08:04:10;;;;;;;7.37;3.43;;;;;;;14.51;67.15;93748.22;4989975;28;20800;-44
2023/12/02 08:06:39;;;;;;;4.20;2.57;;;;;;;14.50;66.62;93704.66;4989409;28;20727;-43
2023/12/02 08:09:05;;;;;;;8.67;3.17;;;;;;;14.61;66.24;93762.56;4989444;28;20243;-42
2023/12/02 08:11:32;;;;;;;9.17;3.70;;;;;;;14.60;66.43;93745.53;4989203;28;20774;-42
2023/12/02 08:13:59;;;;;;;6.87;3.63;;;;;;;14.68;66.22;93764.22;4989530;28;20651;-43
2023/12/02 08:16:26;;;;;;;5.23;3.40;;;;;;;14.66;66.06;93724.97;4989714;28;20290;-42
2023/12/02 08:18:53;;;;;;;9.47;2.93;;;;;;;14.63;65.99;93758.00;4989778;28;20219;-43
2023/12/02 08:21:20;;;;;;;16.60;3.27;;;;;;;14.63;66.05;93738.22;4988512;28;20201;-42
2023/12/02 08:23:48;;;;;;;12.40;4.67;;;;;;;14.65;66.59;93702.03;4988667;28;20193;-42
2023/12/02 08:26:15;;;;;;;6.43;4.03;;;;;;;14.70;65.99;93710.75;4988690;28;21047;-43
2023/12/02 08:28:42;;;;;;;6.00;2.93;;;;;;;14.54;65.60;93677.59;4988623;28;20185;-43
2023/12/02 08:31:09;;;;;;;9.67;3.33;;;;;;;14.54;65.39;93680.94;4988992;28;20197;-42
2023/12/02 08:33:37;;;;;;;5.07;3.27;;;;;;;14.63;65.34;93712.47;4988653;28;20770;-41
2023/12/02 08:36:04;;;;;;;7.27;3.27;;;;;;;14.70;65.45;93679.09;4969806;28;20656;-43
2023/12/02 08:38:31;;;;;;;13.30;4.13;;;;;;;14.73;64.77;93712.97;4984474;28;20213;-42
2023/12/02 08:40:59;;;;;;;6.40;3.63;;;;;;;14.65;65.57;93710.53;4989583;28;20185;-43
2023/12/02 08:43:26;;;;;;;7.77;4.40;;;;;;;14.65;65.72;93713.13;4988928;28;20248;-42
2023/12/02 08:45:53;;;;;;;8.90;4.10;;;;;;;14.64;65.85;93687.56;4989051;28;20292;-44
2023/12/02 08:48:20;;;;;;;10.47;4.10;;;;;;;14.60;66.67;93730.88;4988573;28;20197;-41
2023/12/02 08:50:47;;;;;;;9.20;4.50;;;;;;;14.58;66.71;93716.59;4988982;28;20189;-42
2023/12/02 08:53:13;;;;;;;7.87;4.20;;;;;;;14.59;66.31;93718.97;4988154;28;20181;-42
2023/12/02 08:55:40;;;;;;;13.23;4.30;;;;;;;14.51;66.76;93740.50;4988708;28;20219;-41
2023/12/02 08:58:08;;;;;;;11.23;3.83;;;;;;;14.57;66.64;93743.31;4989334;28;20193;-42
2023/12/02 09:00:35;;;;;;;7.10;4.10;;;;;;;14.59;66.54;93741.34;4988729;28;20197;-42
2023/12/02 09:03:02;;;;;;;6.27;3.40;;;;;;;14.60;66.22;93687.16;4989069;28;20279;-42
2023/12/02 09:05:30;;;;;;;9.07;5.73;;;;;;;14.66;66.35;93713.91;4988788;28;20192;-45
2023/12/02 09:07:59;;;;;;;6.83;3.87;;;;;;;14.72;67.27;93726.00;4987740;28;20244;-43
2023/12/02 09:10:26;;;;;;;7.77;3.80;;;;;;;14.72;67.02;93734.56;4988028;28;20201;-44
2023/12/02 09:12:53;;;;;;;11.63;5.90;;;;;;;14.71;67.14;93732.16;4988195;28;20185;-43
2023/12/02 09:15:41;;;;;;;10.27;4.03;;;;;;;14.76;66.45;93728.03;4988250;28;20213;-42
2023/12/02 09:18:10;;;;;;;12.80;3.70;;;;;;;14.77;66.06;93708.25;4988381;28;20193;-42
2023/12/02 09:20:47;;;;;;;7.37;3.73;;;;;;;14.83;66.03;93758.19;4988070;28;20279;-42
2023/12/02 09:23:16;;;;;;;12.57;4.13;;;;;;;14.93;66.22;93720.81;4988488;28;20212;-42
2023/12/02 09:25:43;;;;;;;10.07;3.63;;;;;;;14.97;65.55;93724.59;4988384;28;20197;-43
2023/12/02 09:28:18;;;;;;;9.03;3.93;;;;;;;15.02;64.51;93711.97;4988546;28;20193;-42
2023/12/02 09:31:08;;;;;;;7.50;3.60;;;;;;;15.19;63.69;93701.38;4988279;28;20656;-43
2023/12/02 09:33:35;;;;;;;4.33;3.47;;;;;;;15.43;63.21;93700.91;4987702;28;20661;-44
2023/12/02 09:36:03;;;;;;;14.57;3.80;;;;;;;15.62;63.23;93708.91;4988226;28;20276;-43
2023/12/02 09:38:30;;;;;;;10.87;3.70;;;;;;;15.68;63.06;93713.31;4987750;28;20652;-45
2023/12/02 09:41:09;;;;;;;9.00;4.00;;;;;;;15.87;61.99;93702.28;4980234;28;20637;-41
2023/12/02 09:43:42;;;;;;;7.23;3.67;;;;;;;16.04;61.31;93715.59;4988087;28;20204;-43
2023/12/02 09:46:26;;;;;;;4.53;3.00;;;;;;;16.14;61.07;93697.16;4987945;28;20195;-42
2023/12/02 09:49:10;;;;;;;6.10;3.43;;;;;;;16.11;58.18;93708.69;4987803;28;20365;-44
2023/12/02 09:51:51;;;;;;;8.47;3.80;;;;;;;16.16;58.73;93710.69;4988456;28;20189;-44
2023/12/02 09:54:26;;;;;;;7.30;3.20;;;;;;;16.24;58.88;93706.13;4987738;28;20224;-44
2023/12/02 09:56:57;;;;;;;5.70;3.20;;;;;;;16.37;58.33;93707.13;4988036;28;20188;-44
2023/12/02 09:59:35;;;;;;;12.83;5.43;;;;;;;16.47;58.00;93679.94;4988152;28;20204;-43
2023/12/02 10:02:14;;;;;;;8.17;3.87;;;;;;;16.63;57.28;93675.38;4987255;28;20193;-43
2023/12/02 10:04:51;;;;;;;8.10;4.00;;;;;;;16.79;57.03;93698.22;4987766;28;20259;-43
2023/12/02 10:07:27;;;;;;;11.83;3.97;;;;;;;16.90;56.48;93687.28;4987323;28;20613;-43
2023/12/02 10:10:05;;;;;;;7.53;3.67;;;;;;;16.72;55.44;93648.38;4987868;28;20214;-43
2023/12/02 10:12:46;;;;;;;3.67;2.90;;;;;;;16.94;52.36;93667.81;4987436;28;20185;-44
2023/12/02 10:15:13;;;;;;;6.63;3.80;;;;;;;16.96;51.07;93632.25;4987532;28;20313;-43
2023/12/02 10:17:50;;;;;;;10.23;4.87;;;;;;;17.22;52.42;93653.81;4987685;28;20204;-43
2023/12/02 10:20:17;;;;;;;9.77;4.83;;;;;;;17.14;51.51;93613.53;4986919;28;20287;-44
2023/12/02 10:22:45;;;;;;;11.87;5.07;;;;;;;17.36;50.26;93681.22;4987669;28;20695;-45
2023/12/02 10:25:22;;;;;;;3.53;2.77;;;;;;;17.40;47.54;93679.81;4987488;28;20213;-47
2023/12/02 10:27:50;;;;;;;20.63;3.67;;;;;;;17.51;49.02;93671.41;4987794;28;20203;-43
2023/12/02 10:30:23;;;;;;;7.27;3.97;;;;;;;17.65;48.57;93653.25;4987368;28;20216;-43
2023/12/02 10:33:07;;;;;;;6.60;3.33;;;;;;;17.78;46.57;93668.72;4987700;28;20224;-44
2023/12/02 10:35:37;;;;;;;4.90;2.70;;;;;;;17.93;44.78;93664.09;4987433;28;20632;-42
2023/12/02 10:38:18;;;;;;;6.67;2.30;;;;;;;18.11;42.29;93639.31;4987671;28;20197;-44
2023/12/02 10:40:54;;;;;;;3.73;2.30;;;;;;;18.27;41.42;93651.75;4987136;28;20583;-43
2023/12/02 10:43:28;;;;;;;5.63;2.30;;;;;;;18.40;40.95;93617.97;4987901;28;20220;-44
2023/12/02 10:45:55;;;;;;;2.83;1.50;;;;;;;18.51;40.27;93627.63;4987362;28;20193;-43
2023/12/02 10:48:24;;;;;;;6.33;2.00;;;;;;;18.59;40.48;93618.03;4987127;28;20632;-43
2023/12/02 10:50:51;;;;;;;8.13;2.50;;;;;;;18.73;39.15;93609.16;4987111;28;20197;-45
2023/12/02 10:53:20;;;;;;;6.50;2.43;;;;;;;18.84;40.16;93610.25;4987489;28;20272;-43
2023/12/02 10:55:53;;;;;;;5.63;2.00;;;;;;;18.70;39.40;93581.09;4986928;28;20217;-43
2023/12/02 10:58:21;;;;;;;9.73;2.47;;;;;;;18.98;38.88;93612.47;4987161;28;20637;-42
2023/12/02 11:00:54;;;;;;;6.13;2.30;;;;;;;19.00;39.24;93605.28;4987154;28;20228;-44
2023/12/02 11:03:28;;;;;;;11.37;2.93;;;;;;;19.04;40.41;93585.72;4987092;28;20660;-45
2023/12/02 11:06:02;;;;;;;2.90;1.83;;;;;;;19.02;39.84;93590.31;4986873;28;20196;-44
2023/12/02 11:08:48;;;;;;;3.85;1.95;;;;;;;19.12;39.01;93582.03;4986808;28;20225;-43
2023/12/02 11:11:24;;;;;;;10.25;2.65;;;;;;;19.08;40.08;93588.63;4987185;28;20192;-44
2023/12/02 11:13:55;;;;;;;8.87;3.50;;;;;;;19.06;41.20;93575.13;4986627;28;20196;-45
2023/12/02 11:16:29;;;;;;;7.70;2.67;;;;;;;18.91;40.62;93564.31;4986769;28;20247;-44
2023/12/02 11:19:15;;;;;;;4.47;2.15;;;;;;;19.07;39.25;93545.59;4987640;28;20260;-44
2023/12/02 11:21:58;;;;;;;3.05;2.35;;;;;;;19.08;39.59;93562.72;4987745;28;20197;-44
2023/12/02 11:24:34;;;;;;;9.65;2.58;;;;;;;19.09;39.09;93566.13;4987046;28;20265;-45
2023/12/02 11:27:13;;;;;;;11.90;2.83;;;;;;;19.13;39.09;93568.06;4987228;28;20200;-44
2023/12/02 11:29:56;;;;;;;5.80;2.40;;;;;;;19.13;39.53;93569.84;4986394;28;20932;-45
2023/12/02 11:32:29;;;;;;;8.60;2.40;;;;;;;19.14;39.17;93564.47;4988947;28;20197;-42
2023/12/02 11:35:12;;;;;;;6.45;2.83;;;;;;;19.16;39.18;93551.28;4990209;28;20236;-42
2023/12/02 11:37:58;;;;;;;4.10;2.73;;;;;;;18.65;39.15;93479.91;4988458;28;20220;-44